sensor_id;sensor_type;location;lat;lon;timestamp;P1;durP1;ratioP1;P2;durP2;ratioP2
27800;SDS011;15181;49.112;11.930;2022-10-17T00:01:02;19.52;;;18.00;;
27800;SDS011;15181;49.112;11.930;2022-10-17T00:03:30;20.65;;;17.80;;
27800;SDS011;15181;49.112;11.930;2022-10-17T00:05:58;55.95;;;21.02;;
27800;SDS011;15181;49.112;11.930;2022-10-17T00:08:30;18.83;;;17.38;;
27800;SDS011;15181;49.112;11.930;2022-10-17T00:10:59;19.58;;;18.20;;
27800;SDS011;15181;49.112;11.930;2022-10-17T00:13:27;19.25;;;17.55;;
27800;SDS011;15181;49.112;11.930;2022-10-17T00:15:55;20.77;;;18.85;;
27800;SDS011;15181;49.112;11.930;2022-10-17T00:18:22;20.00;;;18.23;;
27800;SDS011;15181;49.112;11.930;2022-10-17T00:20:49;18.95;;;17.33;;
27800;SDS011;15181;49.112;11.930;2022-10-17T00:23:18;22.17;;;18.20;;
27800;SDS011;15181;49.112;11.930;2022-10-17T00:25:45;19.05;;;17.52;;
27800;SDS011;15181;49.112;11.930;2022-10-17T00:28:12;18.58;;;16.83;;
27800;SDS011;15181;49.112;11.930;2022-10-17T00:30:40;19.52;;;17.55;;
27800;SDS011;15181;49.112;11.930;2022-10-17T00:33:07;20.40;;;18.23;;
27800;SDS011;15181;49.112;11.930;2022-10-17T00:35:34;19.35;;;17.65;;
27800;SDS011;15181;49.112;11.930;2022-10-17T00:38:01;32.15;;;19.73;;
27800;SDS011;15181;49.112;11.930;2022-10-17T00:40:29;20.35;;;18.13;;
27800;SDS011;15181;49.112;11.930;2022-10-17T00:42:56;70.43;;;22.02;;
27800;SDS011;15181;49.112;11.930;2022-10-17T00:45:24;71.13;;;21.38;;
27800;SDS011;15181;49.112;11.930;2022-10-17T00:47:54;19.05;;;17.10;;
27800;SDS011;15181;49.112;11.930;2022-10-17T00:50:24;18.75;;;17.13;;
27800;SDS011;15181;49.112;11.930;2022-10-17T00:52:51;23.70;;;16.85;;
27800;SDS011;15181;49.112;11.930;2022-10-17T00:55:20;18.90;;;17.00;;
27800;SDS011;15181;49.112;11.930;2022-10-17T00:57:51;16.98;;;15.77;;
27800;SDS011;15181;49.112;11.930;2022-10-17T01:00:18;17.75;;;16.33;;
27800;SDS011;15181;49.112;11.930;2022-10-17T01:02:46;17.80;;;16.40;;
27800;SDS011;15181;49.112;11.930;2022-10-17T01:05:13;17.70;;;16.27;;
27800;SDS011;15181;49.112;11.930;2022-10-17T01:07:41;17.95;;;16.65;;
27800;SDS011;15181;49.112;11.930;2022-10-17T01:10:09;18.75;;;17.02;;
27800;SDS011;15181;49.112;11.930;2022-10-17T01:12:40;17.15;;;16.05;;
27800;SDS011;15181;49.112;11.930;2022-10-17T01:15:20;84.72;;;20.13;;
27800;SDS011;15181;49.112;11.930;2022-10-17T01:17:58;52.22;;;17.95;;
27800;SDS011;15181;49.112;11.930;2022-10-17T01:23:28;17.42;;;15.90;;
27800;SDS011;15181;49.112;11.930;2022-10-17T01:26:11;36.83;;;18.33;;
27800;SDS011;15181;49.112;11.930;2022-10-17T01:28:50;29.83;;;17.45;;
27800;SDS011;15181;49.112;11.930;2022-10-17T01:31:35;29.42;;;17.17;;
27800;SDS011;15181;49.112;11.930;2022-10-17T01:34:07;16.92;;;15.82;;
27800;SDS011;15181;49.112;11.930;2022-10-17T01:36:40;17.98;;;16.65;;
27800;SDS011;15181;49.112;11.930;2022-10-17T01:39:14;19.15;;;17.35;;
27800;SDS011;15181;49.112;11.930;2022-10-17T01:41:46;45.40;;;18.15;;
27800;SDS011;15181;49.112;11.930;2022-10-17T01:44:17;48.67;;;18.73;;
27800;SDS011;15181;49.112;11.930;2022-10-17T01:46:53;20.20;;;16.13;;
27800;SDS011;15181;49.112;11.930;2022-10-17T01:49:25;17.20;;;16.00;;
27800;SDS011;15181;49.112;11.930;2022-10-17T01:51:57;16.65;;;15.55;;
27800;SDS011;15181;49.112;11.930;2022-10-17T01:54:29;16.73;;;15.55;;
27800;SDS011;15181;49.112;11.930;2022-10-17T01:57:00;17.13;;;16.00;;
27800;SDS011;15181;49.112;11.930;2022-10-17T01:59:33;16.77;;;15.63;;
27800;SDS011;15181;49.112;11.930;2022-10-17T02:02:06;16.23;;;15.27;;
27800;SDS011;15181;49.112;11.930;2022-10-17T02:04:34;16.42;;;15.43;;
27800;SDS011;15181;49.112;11.930;2022-10-17T02:07:05;17.20;;;15.63;;
27800;SDS011;15181;49.112;11.930;2022-10-17T02:09:33;16.58;;;15.48;;
27800;SDS011;15181;49.112;11.930;2022-10-17T02:12:04;16.48;;;15.38;;
27800;SDS011;15181;49.112;11.930;2022-10-17T02:14:44;20.05;;;15.77;;
27800;SDS011;15181;49.112;11.930;2022-10-17T02:17:24;16.02;;;15.05;;
27800;SDS011;15181;49.112;11.930;2022-10-17T02:20:05;16.70;;;15.52;;
27800;SDS011;15181;49.112;11.930;2022-10-17T02:22:41;16.50;;;15.23;;
27800;SDS011;15181;49.112;11.930;2022-10-17T02:25:13;18.67;;;16.00;;
27800;SDS011;15181;49.112;11.930;2022-10-17T02:27:47;16.15;;;15.23;;
27800;SDS011;15181;49.112;11.930;2022-10-17T02:30:22;16.98;;;15.70;;
27800;SDS011;15181;49.112;11.930;2022-10-17T02:32:59;16.55;;;15.50;;
27800;SDS011;15181;49.112;11.930;2022-10-17T02:35:29;16.10;;;15.20;;
27800;SDS011;15181;49.112;11.930;2022-10-17T02:37:59;19.90;;;16.10;;
27800;SDS011;15181;49.112;11.930;2022-10-17T02:40:28;19.73;;;16.65;;
27800;SDS011;15181;49.112;11.930;2022-10-17T02:42:57;16.00;;;14.80;;
27800;SDS011;15181;49.112;11.930;2022-10-17T02:45:25;16.20;;;15.20;;
27800;SDS011;15181;49.112;11.930;2022-10-17T02:48:01;16.88;;;15.38;;
27800;SDS011;15181;49.112;11.930;2022-10-17T02:50:32;16.02;;;14.95;;
27800;SDS011;15181;49.112;11.930;2022-10-17T02:55:37;17.35;;;15.57;;
27800;SDS011;15181;49.112;11.930;2022-10-17T02:58:09;27.50;;;15.85;;
27800;SDS011;15181;49.112;11.930;2022-10-17T03:00:41;22.08;;;16.05;;
27800;SDS011;15181;49.112;11.930;2022-10-17T03:03:21;22.25;;;16.20;;
27800;SDS011;15181;49.112;11.930;2022-10-17T03:05:49;17.35;;;15.95;;
27800;SDS011;15181;49.112;11.930;2022-10-17T03:08:17;17.20;;;16.10;;
27800;SDS011;15181;49.112;11.930;2022-10-17T03:10:44;16.38;;;15.27;;
27800;SDS011;15181;49.112;11.930;2022-10-17T03:13:10;17.95;;;15.95;;
27800;SDS011;15181;49.112;11.930;2022-10-17T03:15:38;16.10;;;15.00;;
27800;SDS011;15181;49.112;11.930;2022-10-17T03:18:05;15.65;;;14.75;;
27800;SDS011;15181;49.112;11.930;2022-10-17T03:20:34;15.90;;;15.00;;
27800;SDS011;15181;49.112;11.930;2022-10-17T03:23:01;16.50;;;15.35;;
27800;SDS011;15181;49.112;11.930;2022-10-17T03:25:28;16.80;;;15.45;;
27800;SDS011;15181;49.112;11.930;2022-10-17T03:27:56;16.80;;;15.70;;
27800;SDS011;15181;49.112;11.930;2022-10-17T03:30:24;16.73;;;15.45;;
27800;SDS011;15181;49.112;11.930;2022-10-17T03:32:51;16.02;;;14.88;;
27800;SDS011;15181;49.112;11.930;2022-10-17T03:35:18;16.08;;;15.07;;
27800;SDS011;15181;49.112;11.930;2022-10-17T03:37:46;15.93;;;14.80;;
27800;SDS011;15181;49.112;11.930;2022-10-17T03:40:13;16.10;;;14.70;;
27800;SDS011;15181;49.112;11.930;2022-10-17T03:42:40;15.82;;;14.90;;
27800;SDS011;15181;49.112;11.930;2022-10-17T03:45:07;16.25;;;14.95;;
27800;SDS011;15181;49.112;11.930;2022-10-17T03:47:34;16.08;;;15.15;;
27800;SDS011;15181;49.112;11.930;2022-10-17T03:50:01;21.42;;;19.92;;
27800;SDS011;15181;49.112;11.930;2022-10-17T03:52:29;51.50;;;47.10;;
27800;SDS011;15181;49.112;11.930;2022-10-17T03:54:57;31.75;;;21.58;;
27800;SDS011;15181;49.112;11.930;2022-10-17T03:57:24;18.08;;;16.38;;
27800;SDS011;15181;49.112;11.930;2022-10-17T03:59:51;20.42;;;16.35;;
27800;SDS011;15181;49.112;11.930;2022-10-17T04:02:18;47.25;;;17.63;;
27800;SDS011;15181;49.112;11.930;2022-10-17T04:04:44;18.20;;;17.10;;
27800;SDS011;15181;49.112;11.930;2022-10-17T04:07:11;19.58;;;17.15;;
27800;SDS011;15181;49.112;11.930;2022-10-17T04:09:38;17.23;;;15.88;;
27800;SDS011;15181;49.112;11.930;2022-10-17T04:12:06;17.02;;;16.02;;
27800;SDS011;15181;49.112;11.930;2022-10-17T04:14:33;16.95;;;15.95;;
27800;SDS011;15181;49.112;11.930;2022-10-17T04:17:01;17.52;;;16.17;;
27800;SDS011;15181;49.112;11.930;2022-10-17T04:19:28;16.80;;;15.80;;
27800;SDS011;15181;49.112;11.930;2022-10-17T04:21:55;17.38;;;16.27;;
27800;SDS011;15181;49.112;11.930;2022-10-17T04:24:22;18.25;;;16.20;;
27800;SDS011;15181;49.112;11.930;2022-10-17T04:26:50;17.10;;;15.93;;
27800;SDS011;15181;49.112;11.930;2022-10-17T04:29:18;18.08;;;16.83;;
27800;SDS011;15181;49.112;11.930;2022-10-17T04:31:45;16.92;;;15.93;;
27800;SDS011;15181;49.112;11.930;2022-10-17T04:34:13;17.48;;;16.25;;
27800;SDS011;15181;49.112;11.930;2022-10-17T04:36:40;18.02;;;16.63;;
27800;SDS011;15181;49.112;11.930;2022-10-17T04:39:07;18.08;;;16.40;;
27800;SDS011;15181;49.112;11.930;2022-10-17T04:41:34;36.28;;;18.10;;
27800;SDS011;15181;49.112;11.930;2022-10-17T04:44:01;18.25;;;16.80;;
27800;SDS011;15181;49.112;11.930;2022-10-17T04:46:29;17.40;;;16.30;;
27800;SDS011;15181;49.112;11.930;2022-10-17T04:48:58;17.95;;;16.77;;
27800;SDS011;15181;49.112;11.930;2022-10-17T04:51:25;16.83;;;15.70;;
27800;SDS011;15181;49.112;11.930;2022-10-17T04:53:52;16.10;;;15.10;;
27800;SDS011;15181;49.112;11.930;2022-10-17T04:56:19;20.42;;;15.90;;
27800;SDS011;15181;49.112;11.930;2022-10-17T04:58:48;16.25;;;15.18;;
27800;SDS011;15181;49.112;11.930;2022-10-17T05:01:16;16.83;;;15.88;;
27800;SDS011;15181;49.112;11.930;2022-10-17T05:03:45;18.33;;;16.83;;
27800;SDS011;15181;49.112;11.930;2022-10-17T05:06:14;17.80;;;16.45;;
27800;SDS011;15181;49.112;11.930;2022-10-17T05:08:42;17.52;;;16.42;;
27800;SDS011;15181;49.112;11.930;2022-10-17T05:11:16;18.25;;;17.15;;
27800;SDS011;15181;49.112;11.930;2022-10-17T05:13:48;17.50;;;16.50;;
27800;SDS011;15181;49.112;11.930;2022-10-17T05:16:16;18.52;;;17.30;;
27800;SDS011;15181;49.112;11.930;2022-10-17T05:18:43;18.90;;;17.65;;
27800;SDS011;15181;49.112;11.930;2022-10-17T05:21:11;19.52;;;18.13;;
27800;SDS011;15181;49.112;11.930;2022-10-17T05:23:38;19.70;;;18.10;;
27800;SDS011;15181;49.112;11.930;2022-10-17T05:26:05;19.63;;;18.20;;
27800;SDS011;15181;49.112;11.930;2022-10-17T05:28:32;19.23;;;17.73;;
27800;SDS011;15181;49.112;11.930;2022-10-17T05:31:01;22.02;;;20.35;;
27800;SDS011;15181;49.112;11.930;2022-10-17T05:33:28;26.05;;;24.27;;
27800;SDS011;15181;49.112;11.930;2022-10-17T05:35:56;21.25;;;19.80;;
27800;SDS011;15181;49.112;11.930;2022-10-17T05:38:24;19.95;;;18.33;;
27800;SDS011;15181;49.112;11.930;2022-10-17T05:40:55;20.30;;;18.58;;
27800;SDS011;15181;49.112;11.930;2022-10-17T05:43:23;19.05;;;17.65;;
27800;SDS011;15181;49.112;11.930;2022-10-17T05:45:50;18.92;;;17.45;;
27800;SDS011;15181;49.112;11.930;2022-10-17T05:48:17;17.92;;;16.52;;
27800;SDS011;15181;49.112;11.930;2022-10-17T05:50:44;19.05;;;17.55;;
27800;SDS011;15181;49.112;11.930;2022-10-17T05:53:11;19.58;;;18.27;;
27800;SDS011;15181;49.112;11.930;2022-10-17T05:55:40;18.27;;;16.92;;
27800;SDS011;15181;49.112;11.930;2022-10-17T05:58:07;17.92;;;16.30;;
27800;SDS011;15181;49.112;11.930;2022-10-17T06:00:33;18.00;;;16.70;;
27800;SDS011;15181;49.112;11.930;2022-10-17T06:03:00;20.05;;;17.42;;
27800;SDS011;15181;49.112;11.930;2022-10-17T06:05:27;17.20;;;16.00;;
27800;SDS011;15181;49.112;11.930;2022-10-17T06:07:55;17.42;;;16.17;;
27800;SDS011;15181;49.112;11.930;2022-10-17T06:10:22;17.27;;;16.08;;
27800;SDS011;15181;49.112;11.930;2022-10-17T06:12:50;19.00;;;16.23;;
27800;SDS011;15181;49.112;11.930;2022-10-17T06:15:17;17.20;;;16.10;;
27800;SDS011;15181;49.112;11.930;2022-10-17T06:17:44;17.33;;;15.90;;
27800;SDS011;15181;49.112;11.930;2022-10-17T06:20:11;18.23;;;16.63;;
27800;SDS011;15181;49.112;11.930;2022-10-17T06:22:38;17.40;;;16.00;;
27800;SDS011;15181;49.112;11.930;2022-10-17T06:25:05;19.17;;;17.17;;
27800;SDS011;15181;49.112;11.930;2022-10-17T06:27:32;19.40;;;17.90;;
27800;SDS011;15181;49.112;11.930;2022-10-17T06:30:01;20.00;;;18.20;;
27800;SDS011;15181;49.112;11.930;2022-10-17T06:32:28;19.02;;;17.38;;
27800;SDS011;15181;49.112;11.930;2022-10-17T06:34:55;24.83;;;19.23;;
27800;SDS011;15181;49.112;11.930;2022-10-17T06:37:22;20.45;;;17.35;;
27800;SDS011;15181;49.112;11.930;2022-10-17T06:39:49;30.20;;;18.02;;
27800;SDS011;15181;49.112;11.930;2022-10-17T06:42:16;23.90;;;17.73;;
27800;SDS011;15181;49.112;11.930;2022-10-17T06:44:42;21.23;;;18.90;;
27800;SDS011;15181;49.112;11.930;2022-10-17T06:47:11;18.90;;;17.00;;
27800;SDS011;15181;49.112;11.930;2022-10-17T06:49:38;18.65;;;17.10;;
27800;SDS011;15181;49.112;11.930;2022-10-17T06:52:05;18.98;;;17.33;;
27800;SDS011;15181;49.112;11.930;2022-10-17T06:54:32;19.05;;;17.42;;
27800;SDS011;15181;49.112;11.930;2022-10-17T06:56:58;18.48;;;16.98;;
27800;SDS011;15181;49.112;11.930;2022-10-17T06:59:25;17.60;;;16.40;;
27800;SDS011;15181;49.112;11.930;2022-10-17T07:01:52;20.35;;;16.88;;
27800;SDS011;15181;49.112;11.930;2022-10-17T07:04:20;17.05;;;15.95;;
27800;SDS011;15181;49.112;11.930;2022-10-17T07:06:47;16.50;;;15.48;;
27800;SDS011;15181;49.112;11.930;2022-10-17T07:09:14;17.25;;;16.15;;
27800;SDS011;15181;49.112;11.930;2022-10-17T07:11:41;17.25;;;16.05;;
27800;SDS011;15181;49.112;11.930;2022-10-17T07:14:08;18.13;;;16.70;;
27800;SDS011;15181;49.112;11.930;2022-10-17T07:16:35;16.77;;;15.70;;
27800;SDS011;15181;49.112;11.930;2022-10-17T07:19:02;16.77;;;15.77;;
27800;SDS011;15181;49.112;11.930;2022-10-17T07:21:30;17.60;;;16.40;;
27800;SDS011;15181;49.112;11.930;2022-10-17T07:23:57;17.65;;;16.45;;
27800;SDS011;15181;49.112;11.930;2022-10-17T07:26:24;17.08;;;16.05;;
27800;SDS011;15181;49.112;11.930;2022-10-17T07:28:52;16.33;;;15.32;;
27800;SDS011;15181;49.112;11.930;2022-10-17T07:31:20;18.20;;;16.70;;
27800;SDS011;15181;49.112;11.930;2022-10-17T07:33:48;17.10;;;16.00;;
27800;SDS011;15181;49.112;11.930;2022-10-17T07:36:15;20.17;;;15.75;;
27800;SDS011;15181;49.112;11.930;2022-10-17T07:38:44;16.88;;;15.88;;
27800;SDS011;15181;49.112;11.930;2022-10-17T07:41:11;18.40;;;16.80;;
27800;SDS011;15181;49.112;11.930;2022-10-17T07:43:38;16.98;;;15.82;;
27800;SDS011;15181;49.112;11.930;2022-10-17T07:46:06;148.15;;;26.88;;
27800;SDS011;15181;49.112;11.930;2022-10-17T07:48:35;17.75;;;16.25;;
27800;SDS011;15181;49.112;11.930;2022-10-17T07:51:03;18.13;;;16.70;;
27800;SDS011;15181;49.112;11.930;2022-10-17T07:53:34;18.08;;;16.48;;
27800;SDS011;15181;49.112;11.930;2022-10-17T07:56:03;17.73;;;16.63;;
27800;SDS011;15181;49.112;11.930;2022-10-17T07:58:31;16.85;;;15.75;;
27800;SDS011;15181;49.112;11.930;2022-10-17T08:00:59;16.48;;;15.48;;
27800;SDS011;15181;49.112;11.930;2022-10-17T08:03:26;16.83;;;15.80;;
27800;SDS011;15181;49.112;11.930;2022-10-17T08:05:55;16.83;;;15.55;;
27800;SDS011;15181;49.112;11.930;2022-10-17T08:08:23;16.20;;;15.20;;
27800;SDS011;15181;49.112;11.930;2022-10-17T08:10:50;17.55;;;16.45;;
27800;SDS011;15181;49.112;11.930;2022-10-17T08:13:18;17.20;;;16.20;;
27800;SDS011;15181;49.112;11.930;2022-10-17T08:15:45;17.42;;;16.42;;
27800;SDS011;15181;49.112;11.930;2022-10-17T08:18:12;18.08;;;16.88;;
27800;SDS011;15181;49.112;11.930;2022-10-17T08:20:40;18.42;;;17.23;;
27800;SDS011;15181;49.112;11.930;2022-10-17T08:23:07;17.50;;;16.50;;
27800;SDS011;15181;49.112;11.930;2022-10-17T08:25:33;17.85;;;16.65;;
27800;SDS011;15181;49.112;11.930;2022-10-17T08:28:03;17.33;;;16.30;;
27800;SDS011;15181;49.112;11.930;2022-10-17T08:30:31;16.05;;;15.05;;
27800;SDS011;15181;49.112;11.930;2022-10-17T08:32:58;15.88;;;14.95;;
27800;SDS011;15181;49.112;11.930;2022-10-17T08:35:25;15.95;;;15.05;;
27800;SDS011;15181;49.112;11.930;2022-10-17T08:37:52;17.20;;;16.10;;
27800;SDS011;15181;49.112;11.930;2022-10-17T08:40:19;17.88;;;16.77;;
27800;SDS011;15181;49.112;11.930;2022-10-17T08:42:52;17.48;;;16.25;;
27800;SDS011;15181;49.112;11.930;2022-10-17T08:45:28;17.15;;;16.05;;
27800;SDS011;15181;49.112;11.930;2022-10-17T08:48:01;19.90;;;18.50;;
27800;SDS011;15181;49.112;11.930;2022-10-17T08:50:31;19.60;;;18.30;;
27800;SDS011;15181;49.112;11.930;2022-10-17T08:53:03;20.05;;;18.70;;
27800;SDS011;15181;49.112;11.930;2022-10-17T08:55:38;21.38;;;19.55;;
27800;SDS011;15181;49.112;11.930;2022-10-17T08:58:11;21.50;;;19.90;;
27800;SDS011;15181;49.112;11.930;2022-10-17T09:00:40;21.42;;;19.70;;
27800;SDS011;15181;49.112;11.930;2022-10-17T09:03:16;21.48;;;19.90;;
27800;SDS011;15181;49.112;11.930;2022-10-17T09:05:55;22.65;;;20.88;;
27800;SDS011;15181;49.112;11.930;2022-10-17T09:08:35;23.00;;;21.30;;
27800;SDS011;15181;49.112;11.930;2022-10-17T09:11:12;24.92;;;22.98;;
27800;SDS011;15181;49.112;11.930;2022-10-17T09:13:50;26.90;;;24.48;;
27800;SDS011;15181;49.112;11.930;2022-10-17T09:19:17;31.75;;;28.83;;
27800;SDS011;15181;49.112;11.930;2022-10-17T09:21:49;32.15;;;29.42;;
27800;SDS011;15181;49.112;11.930;2022-10-17T09:24:22;33.28;;;30.17;;
27800;SDS011;15181;49.112;11.930;2022-10-17T09:26:55;33.00;;;29.90;;
27800;SDS011;15181;49.112;11.930;2022-10-17T09:29:24;33.33;;;30.42;;
27800;SDS011;15181;49.112;11.930;2022-10-17T09:31:53;32.92;;;29.98;;
27800;SDS011;15181;49.112;11.930;2022-10-17T09:34:28;34.15;;;31.02;;
27800;SDS011;15181;49.112;11.930;2022-10-17T09:36:56;34.13;;;30.88;;
27800;SDS011;15181;49.112;11.930;2022-10-17T09:39:25;34.22;;;30.92;;
27800;SDS011;15181;49.112;11.930;2022-10-17T09:41:56;34.58;;;31.48;;
27800;SDS011;15181;49.112;11.930;2022-10-17T09:44:26;31.35;;;28.65;;
27800;SDS011;15181;49.112;11.930;2022-10-17T09:46:59;31.75;;;29.15;;
27800;SDS011;15181;49.112;11.930;2022-10-17T09:49:44;32.10;;;29.10;;
27800;SDS011;15181;49.112;11.930;2022-10-17T09:52:13;31.17;;;28.23;;
27800;SDS011;15181;49.112;11.930;2022-10-17T09:54:43;29.65;;;26.92;;
27800;SDS011;15181;49.112;11.930;2022-10-17T09:57:12;30.00;;;27.30;;
27800;SDS011;15181;49.112;11.930;2022-10-17T09:59:40;27.67;;;25.25;;
27800;SDS011;15181;49.112;11.930;2022-10-17T10:02:18;28.42;;;25.92;;
27800;SDS011;15181;49.112;11.930;2022-10-17T10:04:52;28.60;;;26.15;;
27800;SDS011;15181;49.112;11.930;2022-10-17T10:07:20;28.45;;;26.05;;
27800;SDS011;15181;49.112;11.930;2022-10-17T10:09:47;27.42;;;24.92;;
27800;SDS011;15181;49.112;11.930;2022-10-17T10:12:16;28.38;;;25.73;;
27800;SDS011;15181;49.112;11.930;2022-10-17T10:14:44;27.35;;;24.98;;
27800;SDS011;15181;49.112;11.930;2022-10-17T10:17:25;27.25;;;24.98;;
27800;SDS011;15181;49.112;11.930;2022-10-17T10:25:53;26.45;;;24.00;;
27800;SDS011;15181;49.112;11.930;2022-10-17T10:28:22;26.67;;;24.38;;
27800;SDS011;15181;49.112;11.930;2022-10-17T10:30:52;24.20;;;22.20;;
27800;SDS011;15181;49.112;11.930;2022-10-17T10:33:21;25.73;;;23.42;;
27800;SDS011;15181;49.112;11.930;2022-10-17T10:35:52;25.63;;;23.42;;
27800;SDS011;15181;49.112;11.930;2022-10-17T10:38:22;24.85;;;22.65;;
27800;SDS011;15181;49.112;11.930;2022-10-17T10:40:50;23.83;;;21.88;;
27800;SDS011;15181;49.112;11.930;2022-10-17T10:43:20;23.10;;;21.20;;
27800;SDS011;15181;49.112;11.930;2022-10-17T10:45:50;23.40;;;21.50;;
27800;SDS011;15181;49.112;11.930;2022-10-17T10:48:18;23.48;;;21.58;;
27800;SDS011;15181;49.112;11.930;2022-10-17T10:50:48;22.55;;;20.70;;
27800;SDS011;15181;49.112;11.930;2022-10-17T10:53:24;23.38;;;21.50;;
27800;SDS011;15181;49.112;11.930;2022-10-17T10:56:08;23.90;;;21.98;;
27800;SDS011;15181;49.112;11.930;2022-10-17T10:58:40;22.88;;;20.98;;
27800;SDS011;15181;49.112;11.930;2022-10-17T11:01:18;23.25;;;21.35;;
27800;SDS011;15181;49.112;11.930;2022-10-17T11:03:59;25.45;;;23.45;;
27800;SDS011;15181;49.112;11.930;2022-10-17T11:06:38;23.87;;;21.90;;
27800;SDS011;15181;49.112;11.930;2022-10-17T11:09:12;26.48;;;23.75;;
27800;SDS011;15181;49.112;11.930;2022-10-17T11:11:51;26.63;;;24.48;;
27800;SDS011;15181;49.112;11.930;2022-10-17T11:14:23;24.05;;;21.77;;
27800;SDS011;15181;49.112;11.930;2022-10-17T11:17:04;24.55;;;22.25;;
27800;SDS011;15181;49.112;11.930;2022-10-17T11:19:40;24.00;;;21.77;;
27800;SDS011;15181;49.112;11.930;2022-10-17T11:22:11;24.35;;;22.30;;
27800;SDS011;15181;49.112;11.930;2022-10-17T11:24:43;24.33;;;22.42;;
27800;SDS011;15181;49.112;11.930;2022-10-17T11:27:20;23.20;;;21.45;;
27800;SDS011;15181;49.112;11.930;2022-10-17T11:29:48;23.25;;;21.45;;
27800;SDS011;15181;49.112;11.930;2022-10-17T11:32:16;22.42;;;20.75;;
27800;SDS011;15181;49.112;11.930;2022-10-17T11:34:49;22.27;;;20.65;;
27800;SDS011;15181;49.112;11.930;2022-10-17T11:37:19;22.65;;;20.95;;
27800;SDS011;15181;49.112;11.930;2022-10-17T11:39:50;22.77;;;21.00;;
27800;SDS011;15181;49.112;11.930;2022-10-17T11:42:22;22.50;;;20.92;;
27800;SDS011;15181;49.112;11.930;2022-10-17T11:44:54;21.75;;;19.98;;
27800;SDS011;15181;49.112;11.930;2022-10-17T11:47:27;21.42;;;19.73;;
27800;SDS011;15181;49.112;11.930;2022-10-17T11:49:59;21.85;;;20.25;;
27800;SDS011;15181;49.112;11.930;2022-10-17T11:52:34;22.33;;;20.63;;
27800;SDS011;15181;49.112;11.930;2022-10-17T11:55:10;21.42;;;19.92;;
27800;SDS011;15181;49.112;11.930;2022-10-17T11:57:44;21.38;;;19.45;;
27800;SDS011;15181;49.112;11.930;2022-10-17T12:00:35;21.40;;;19.85;;
27800;SDS011;15181;49.112;11.930;2022-10-17T12:03:16;21.30;;;19.70;;
27800;SDS011;15181;49.112;11.930;2022-10-17T12:05:52;20.83;;;19.13;;
27800;SDS011;15181;49.112;11.930;2022-10-17T12:08:24;21.55;;;19.95;;
27800;SDS011;15181;49.112;11.930;2022-10-17T12:11:02;21.17;;;19.70;;
27800;SDS011;15181;49.112;11.930;2022-10-17T12:13:52;21.88;;;20.15;;
27800;SDS011;15181;49.112;11.930;2022-10-17T12:19:27;21.55;;;19.98;;
27800;SDS011;15181;49.112;11.930;2022-10-17T12:22:17;22.25;;;20.65;;
27800;SDS011;15181;49.112;11.930;2022-10-17T12:24:52;22.48;;;20.80;;
27800;SDS011;15181;49.112;11.930;2022-10-17T12:27:32;21.75;;;20.13;;
27800;SDS011;15181;49.112;11.930;2022-10-17T12:30:14;20.92;;;19.42;;
27800;SDS011;15181;49.112;11.930;2022-10-17T12:35:46;19.98;;;18.65;;
27800;SDS011;15181;49.112;11.930;2022-10-17T12:38:21;20.80;;;19.45;;
27800;SDS011;15181;49.112;11.930;2022-10-17T12:40:56;20.88;;;19.38;;
27800;SDS011;15181;49.112;11.930;2022-10-17T12:43:44;21.10;;;19.60;;
27800;SDS011;15181;49.112;11.930;2022-10-17T12:49:23;21.38;;;19.88;;
27800;SDS011;15181;49.112;11.930;2022-10-17T12:55:15;21.98;;;20.13;;
27800;SDS011;15181;49.112;11.930;2022-10-17T12:57:46;21.52;;;19.83;;
27800;SDS011;15181;49.112;11.930;2022-10-17T13:00:20;21.13;;;19.63;;
27800;SDS011;15181;49.112;11.930;2022-10-17T13:02:51;26.90;;;24.70;;
27800;SDS011;15181;49.112;11.930;2022-10-17T13:05:24;22.42;;;20.67;;
27800;SDS011;15181;49.112;11.930;2022-10-17T13:07:54;21.90;;;20.48;;
27800;SDS011;15181;49.112;11.930;2022-10-17T13:10:23;21.05;;;19.52;;
27800;SDS011;15181;49.112;11.930;2022-10-17T13:12:53;20.23;;;18.92;;
27800;SDS011;15181;49.112;11.930;2022-10-17T13:15:32;22.40;;;20.80;;
27800;SDS011;15181;49.112;11.930;2022-10-17T13:18:01;21.27;;;19.65;;
27800;SDS011;15181;49.112;11.930;2022-10-17T13:20:28;21.75;;;20.25;;
27800;SDS011;15181;49.112;11.930;2022-10-17T13:22:56;22.13;;;20.55;;
27800;SDS011;15181;49.112;11.930;2022-10-17T13:25:25;21.25;;;19.55;;
27800;SDS011;15181;49.112;11.930;2022-10-17T13:28:03;21.55;;;19.85;;
27800;SDS011;15181;49.112;11.930;2022-10-17T13:30:34;21.90;;;20.40;;
27800;SDS011;15181;49.112;11.930;2022-10-17T13:33:02;21.98;;;20.38;;
27800;SDS011;15181;49.112;11.930;2022-10-17T13:35:41;21.65;;;20.02;;
27800;SDS011;15181;49.112;11.930;2022-10-17T13:38:09;21.35;;;19.85;;
27800;SDS011;15181;49.112;11.930;2022-10-17T13:40:39;21.13;;;19.65;;
27800;SDS011;15181;49.112;11.930;2022-10-17T13:45:43;20.58;;;18.95;;
27800;SDS011;15181;49.112;11.930;2022-10-17T13:48:16;20.67;;;18.92;;
27800;SDS011;15181;49.112;11.930;2022-10-17T13:50:46;21.65;;;19.92;;
27800;SDS011;15181;49.112;11.930;2022-10-17T13:53:18;20.42;;;18.88;;
27800;SDS011;15181;49.112;11.930;2022-10-17T13:55:53;21.85;;;20.35;;
27800;SDS011;15181;49.112;11.930;2022-10-17T13:58:25;19.85;;;18.38;;
27800;SDS011;15181;49.112;11.930;2022-10-17T14:00:57;20.90;;;19.27;;
27800;SDS011;15181;49.112;11.930;2022-10-17T14:03:24;20.50;;;19.08;;
27800;SDS011;15181;49.112;11.930;2022-10-17T14:06:01;19.63;;;18.23;;
27800;SDS011;15181;49.112;11.930;2022-10-17T14:08:46;20.02;;;18.70;;
27800;SDS011;15181;49.112;11.930;2022-10-17T14:11:21;20.13;;;18.55;;
27800;SDS011;15181;49.112;11.930;2022-10-17T14:13:52;20.30;;;18.70;;
27800;SDS011;15181;49.112;11.930;2022-10-17T14:16:21;19.40;;;18.10;;
27800;SDS011;15181;49.112;11.930;2022-10-17T14:18:50;19.45;;;18.08;;
27800;SDS011;15181;49.112;11.930;2022-10-17T14:21:18;19.77;;;18.25;;
27800;SDS011;15181;49.112;11.930;2022-10-17T14:23:47;19.65;;;18.17;;
27800;SDS011;15181;49.112;11.930;2022-10-17T14:26:15;19.92;;;18.40;;
27800;SDS011;15181;49.112;11.930;2022-10-17T14:28:45;19.90;;;18.30;;
27800;SDS011;15181;49.112;11.930;2022-10-17T14:31:22;19.10;;;17.70;;
27800;SDS011;15181;49.112;11.930;2022-10-17T14:33:54;19.02;;;17.70;;
27800;SDS011;15181;49.112;11.930;2022-10-17T14:36:34;18.70;;;17.48;;
27800;SDS011;15181;49.112;11.930;2022-10-17T14:39:06;18.58;;;17.27;;
27800;SDS011;15181;49.112;11.930;2022-10-17T14:41:43;19.00;;;17.45;;
27800;SDS011;15181;49.112;11.930;2022-10-17T14:44:16;19.60;;;18.10;;
27800;SDS011;15181;49.112;11.930;2022-10-17T14:46:48;18.23;;;17.02;;
27800;SDS011;15181;49.112;11.930;2022-10-17T14:49:20;17.55;;;16.40;;
27800;SDS011;15181;49.112;11.930;2022-10-17T14:52:08;17.77;;;16.35;;
27800;SDS011;15181;49.112;11.930;2022-10-17T14:54:50;17.40;;;16.20;;
27800;SDS011;15181;49.112;11.930;2022-10-17T14:57:18;17.73;;;16.20;;